createdAt,value
2018-08-25T00:00:19.297Z,77.60
2018-08-25T00:02:51.448Z,77.80
2018-08-25T00:05:23.889Z,78.00
2018-08-25T00:07:56.146Z,78.80
2018-08-25T00:10:28.439Z,78.80
2018-08-25T00:13:01.617Z,79.30
2018-08-25T00:15:34.494Z,79.00
2018-08-25T00:18:07.318Z,78.70
2018-08-25T00:20:40.877Z,79.40
2018-08-25T00:23:13.015Z,79.20
2018-08-25T00:25:45.537Z,79.70
2018-08-25T00:28:17.843Z,79.50
2018-08-25T00:34:25.911Z,80.40
2018-08-25T00:36:58.913Z,80.50
2018-08-25T00:39:31.026Z,79.20
2018-08-25T00:42:02.785Z,79.20
2018-08-25T00:44:34.884Z,79.40
2018-08-25T00:47:07.355Z,79.70
2018-08-25T00:49:39.732Z,80.20
2018-08-25T00:52:12.121Z,80.10
2018-08-25T00:54:44.364Z,79.80
2018-08-25T00:57:16.686Z,80.10
2018-08-25T00:59:48.854Z,80.00
2018-08-25T01:02:21.250Z,80.10
2018-08-25T01:04:53.526Z,80.40
2018-08-25T01:07:25.724Z,80.60
2018-08-25T01:09:57.740Z,80.80
2018-08-25T01:12:30.017Z,80.50
2018-08-25T01:15:02.138Z,80.00
2018-08-25T01:17:33.931Z,79.50
2018-08-25T01:20:06.334Z,79.50
2018-08-25T01:22:38.881Z,79.60
2018-08-25T01:25:11.472Z,79.70
2018-08-25T01:27:43.659Z,79.90
2018-08-25T01:30:15.681Z,80.20
2018-08-25T01:32:48.734Z,79.70
2018-08-25T01:35:20.953Z,80.00
2018-08-25T01:37:52.982Z,80.00
2018-08-25T01:40:25.414Z,80.00
2018-08-25T01:42:57.530Z,80.00
2018-08-25T01:45:29.561Z,80.00
2018-08-25T01:48:01.586Z,79.70
2018-08-25T01:50:33.752Z,79.50
2018-08-25T01:53:06.396Z,80.20
2018-08-25T01:55:38.945Z,80.40
2018-08-25T01:58:11.432Z,80.70
2018-08-25T02:00:43.543Z,80.90
2018-08-25T02:03:16.607Z,80.90
2018-08-25T02:05:48.599Z,80.70
2018-08-25T02:08:20.880Z,80.90
2018-08-25T02:10:52.878Z,81.20
2018-08-25T02:13:24.988Z,80.90
2018-08-25T02:15:57.345Z,80.60
2018-08-25T02:18:29.719Z,80.30
2018-08-25T02:21:01.876Z,80.90
2018-08-25T02:23:35.279Z,80.90
2018-08-25T02:26:07.842Z,81.10
2018-08-25T02:28:39.784Z,81.40
2018-08-25T02:31:11.824Z,81.40
2018-08-25T02:33:43.815Z,81.80
2018-08-25T02:36:16.150Z,81.70
2018-08-25T02:38:48.896Z,82.00
2018-08-25T02:41:20.996Z,81.80
2018-08-25T02:43:53.349Z,81.40
2018-08-25T02:46:25.846Z,81.40
2018-08-25T02:48:57.613Z,81.30
2018-08-25T02:51:29.896Z,81.30
2018-08-25T02:54:02.741Z,82.00
2018-08-25T02:56:35.067Z,82.50
2018-08-25T02:59:07.213Z,82.90
2018-08-25T03:01:41.731Z,82.80
2018-08-25T03:04:13.919Z,82.60
2018-08-25T03:06:46.142Z,82.80
2018-08-25T03:09:18.555Z,82.20
2018-08-25T03:11:50.954Z,82.20
2018-08-25T03:14:23.456Z,82.60
2018-08-25T03:16:56.308Z,82.40
2018-08-25T03:19:28.892Z,82.60
2018-08-25T03:22:01.124Z,82.50
2018-08-25T03:24:33.428Z,82.70
2018-08-25T03:27:05.943Z,82.70
2018-08-25T03:29:38.623Z,82.50
2018-08-25T03:32:10.927Z,83.10
2018-08-25T03:34:43.488Z,83.50
2018-08-25T03:37:15.886Z,83.70
2018-08-25T03:39:48.513Z,83.40
2018-08-25T03:42:20.766Z,83.20
2018-08-25T03:44:53.202Z,83.10
2018-08-25T03:47:25.380Z,83.10
2018-08-25T03:49:57.565Z,83.00
2018-08-25T03:52:29.700Z,83.30
2018-08-25T03:55:01.736Z,83.30
2018-08-25T03:57:33.867Z,83.50
2018-08-25T04:00:06.149Z,83.60
2018-08-25T04:02:38.841Z,83.80
2018-08-25T04:05:10.856Z,83.90
2018-08-25T04:07:43.089Z,84.10
2018-08-25T04:10:15.303Z,83.80
2018-08-25T04:12:47.593Z,83.90
2018-08-25T04:15:21.505Z,83.50
2018-08-25T04:17:53.867Z,83.10
2018-08-25T04:20:26.198Z,83.00
2018-08-25T04:22:58.543Z,82.90
2018-08-25T04:25:30.704Z,82.90
2018-08-25T04:28:03.044Z,83.10
2018-08-25T04:30:35.820Z,83.10
2018-08-25T04:33:08.056Z,83.10
2018-08-25T04:35:41.291Z,83.30
2018-08-25T04:38:13.235Z,82.80
2018-08-25T04:40:45.677Z,82.50
2018-08-25T04:43:18.919Z,82.40
2018-08-25T04:45:50.866Z,82.50
2018-08-25T04:48:25.078Z,82.20
2018-08-25T04:50:58.520Z,81.80
2018-08-25T04:53:30.791Z,81.80
2018-08-25T04:56:03.281Z,81.90
2018-08-25T04:58:35.555Z,81.80
2018-08-25T05:01:07.822Z,81.70
2018-08-25T05:03:40.538Z,81.40
2018-08-25T05:06:12.666Z,81.30
2018-08-25T05:08:44.601Z,81.00
2018-08-25T05:11:16.977Z,80.80
2018-08-25T05:13:48.852Z,80.70
2018-08-25T05:16:21.487Z,80.30
2018-08-25T05:18:54.331Z,79.70
2018-08-25T05:21:27.339Z,79.10
2018-08-25T05:23:59.384Z,78.60
2018-08-25T05:26:31.874Z,78.20
2018-08-25T05:29:04.725Z,78.00
2018-08-25T05:31:37.082Z,77.50
2018-08-25T05:34:09.426Z,76.70
2018-08-25T05:36:41.761Z,76.00
2018-08-25T05:39:13.753Z,75.10
2018-08-25T05:41:46.285Z,74.50
2018-08-25T05:44:18.427Z,74.00
2018-08-25T05:46:50.315Z,73.90
2018-08-25T05:49:22.471Z,73.50
2018-08-25T05:51:54.857Z,71.40
2018-08-25T05:54:27.396Z,70.50
2018-08-25T05:56:59.941Z,69.70
2018-08-25T05:59:32.221Z,70.20
2018-08-25T06:02:04.628Z,69.40
2018-08-25T06:04:37.186Z,68.70
2018-08-25T06:07:09.671Z,69.10
2018-08-25T06:09:41.926Z,68.70
2018-08-25T06:12:14.689Z,68.00
2018-08-25T06:14:47.068Z,67.50
2018-08-25T06:17:19.242Z,67.80
2018-08-25T06:19:50.947Z,68.00
2018-08-25T06:22:24.417Z,68.70
2018-08-25T06:24:56.631Z,68.70
2018-08-25T06:27:29.236Z,69.60
2018-08-25T06:30:01.870Z,69.90
2018-08-25T06:32:34.884Z,70.00
2018-08-25T06:35:06.837Z,70.80
2018-08-25T06:37:39.511Z,70.10
2018-08-25T06:40:12.089Z,70.00
2018-08-25T06:42:44.065Z,69.90
2018-08-25T06:45:15.933Z,69.10
2018-08-25T06:47:48.292Z,69.30
2018-08-25T06:50:20.053Z,68.00
2018-08-25T06:52:52.482Z,68.00
2018-08-25T06:55:24.951Z,67.30
2018-08-25T06:57:57.419Z,65.40
2018-08-25T07:00:29.799Z,64.70
2018-08-25T07:03:01.813Z,63.80
2018-08-25T07:05:34.231Z,63.70
2018-08-25T07:08:05.893Z,63.00
2018-08-25T07:10:38.541Z,62.80
2018-08-25T07:13:10.857Z,61.50
2018-08-25T07:15:43.115Z,62.10
2018-08-25T07:18:15.094Z,61.30
2018-08-25T07:20:47.846Z,61.20
2018-08-25T07:23:19.970Z,60.90
2018-08-25T07:25:51.962Z,59.50
2018-08-25T07:28:25.001Z,60.10
2018-08-25T07:30:58.158Z,59.90
2018-08-25T07:33:30.908Z,59.60
2018-08-25T07:36:03.500Z,60.40
2018-08-25T07:38:35.565Z,59.80
2018-08-25T07:41:07.779Z,59.00
2018-08-25T07:43:39.596Z,59.50
2018-08-25T07:46:11.693Z,59.60
2018-08-25T07:48:44.138Z,59.30
2018-08-25T07:51:17.029Z,59.00
2018-08-25T07:53:49.232Z,58.00
2018-08-25T07:56:21.490Z,58.00
2018-08-25T07:58:53.235Z,57.20
2018-08-25T08:01:25.689Z,56.60
2018-08-25T08:03:57.983Z,56.30
2018-08-25T08:06:31.357Z,57.10
2018-08-25T08:09:04.300Z,57.40
2018-08-25T08:11:36.670Z,57.30
2018-08-25T08:14:08.791Z,56.30
2018-08-25T08:16:40.324Z,56.70
2018-08-25T08:19:13.103Z,56.30
2018-08-25T08:21:45.675Z,56.00
2018-08-25T08:24:17.955Z,55.80
2018-08-25T08:26:50.101Z,55.30
2018-08-25T08:29:23.048Z,55.50
2018-08-25T08:31:55.355Z,55.10
2018-08-25T08:34:27.149Z,53.70
2018-08-25T08:36:59.224Z,53.90
2018-08-25T08:39:31.634Z,54.10
2018-08-25T08:42:03.757Z,53.30
2018-08-25T08:44:36.268Z,52.10
2018-08-25T08:47:08.980Z,52.60
2018-08-25T08:49:47.217Z,52.00
2018-08-25T08:52:13.774Z,51.50
2018-08-25T08:54:46.718Z,51.30
2018-08-25T08:57:19.985Z,50.30
2018-08-25T08:59:52.135Z,51.30
2018-08-25T09:02:23.894Z,51.00
2018-08-25T09:04:56.749Z,50.90
2018-08-25T09:07:29.794Z,48.80
2018-08-25T09:10:01.910Z,48.50
2018-08-25T09:12:34.401Z,48.80
2018-08-25T09:15:06.793Z,49.00
2018-08-25T09:17:40.230Z,50.30
2018-08-25T09:20:13.012Z,50.00
2018-08-25T09:22:45.225Z,48.30
2018-08-25T09:25:17.408Z,48.90
2018-08-25T09:27:49.375Z,47.60
2018-08-25T09:30:21.572Z,47.50
2018-08-25T09:32:54.244Z,48.50
2018-08-25T09:35:26.721Z,47.60
2018-08-25T09:37:58.974Z,46.50
2018-08-25T09:40:30.881Z,45.80
2018-08-25T09:43:02.716Z,47.10
2018-08-25T09:45:34.816Z,46.90
2018-08-25T09:48:07.146Z,47.30
2018-08-25T09:50:39.465Z,44.90
2018-08-25T09:53:11.624Z,45.20
2018-08-25T09:55:44.098Z,45.40
2018-08-25T09:58:15.984Z,44.80
2018-08-25T10:00:52.526Z,45.40
2018-08-25T10:03:24.579Z,44.80
2018-08-25T10:05:56.959Z,46.40
2018-08-25T10:08:28.832Z,43.50
2018-08-25T10:11:02.022Z,43.50
2018-08-25T10:13:34.271Z,43.60
2018-08-25T10:16:06.812Z,44.30
2018-08-25T10:18:39.353Z,44.10
2018-08-25T10:21:11.984Z,44.90
2018-08-25T10:23:44.078Z,42.90
2018-08-25T10:26:16.010Z,43.60
2018-08-25T10:28:48.114Z,43.50
2018-08-25T10:31:20.317Z,43.30
2018-08-25T10:33:52.867Z,43.10
2018-08-25T10:36:25.477Z,41.60
2018-08-25T10:38:57.570Z,40.20
2018-08-25T10:41:29.973Z,40.10
2018-08-25T10:44:01.970Z,40.60
2018-08-25T10:46:34.301Z,41.00
2018-08-25T10:49:06.815Z,40.50
2018-08-25T10:51:39.279Z,40.20
2018-08-25T10:54:11.058Z,41.00
2018-08-25T10:56:43.158Z,38.90
2018-08-25T10:59:15.328Z,38.70
2018-08-25T11:01:47.573Z,39.50
2018-08-25T11:04:19.748Z,39.00
2018-08-25T11:06:52.079Z,37.90
2018-08-25T11:09:24.500Z,38.00
2018-08-25T11:11:57.130Z,38.00
2018-08-25T11:14:29.371Z,37.80
2018-08-25T11:17:01.407Z,37.70
2018-08-25T11:19:34.014Z,36.30
2018-08-25T11:22:06.252Z,36.90
2018-08-25T11:24:38.332Z,37.20
2018-08-25T11:27:10.488Z,36.50
2018-08-25T11:29:42.842Z,35.60
2018-08-25T11:32:14.419Z,35.70
2018-08-25T11:34:46.344Z,36.80
2018-08-25T11:37:18.828Z,34.70
2018-08-25T11:39:51.122Z,36.00
2018-08-25T11:42:23.772Z,36.50
2018-08-25T11:44:56.111Z,36.40
2018-08-25T11:47:28.610Z,36.40
2018-08-25T11:50:00.714Z,36.40
2018-08-25T11:52:32.497Z,37.80
2018-08-25T11:55:05.391Z,36.00
2018-08-25T11:57:37.512Z,37.30
2018-08-25T12:00:10.871Z,36.70
2018-08-25T12:02:43.606Z,38.20
2018-08-25T12:05:16.115Z,37.40
2018-08-25T12:07:47.934Z,37.00
2018-08-25T12:10:19.918Z,37.80
2018-08-25T12:12:52.869Z,37.20
2018-08-25T12:15:25.774Z,37.60
2018-08-25T12:17:57.865Z,37.10
2018-08-25T12:20:31.535Z,37.20
2018-08-25T12:23:03.982Z,37.30
2018-08-25T12:25:37.795Z,39.20
2018-08-25T12:28:11.044Z,38.20
2018-08-25T12:30:44.439Z,37.50
2018-08-25T12:33:18.104Z,35.50
2018-08-25T12:35:51.183Z,35.80
2018-08-25T12:38:23.798Z,39.50
2018-08-25T12:40:56.300Z,36.80
2018-08-25T12:43:29.410Z,37.50
2018-08-25T12:46:01.719Z,39.10
2018-08-25T12:48:33.970Z,40.40
2018-08-25T12:51:06.765Z,40.40
2018-08-25T12:53:39.240Z,40.30
2018-08-25T12:56:11.375Z,39.70
2018-08-25T12:58:44.018Z,40.80
2018-08-25T13:01:16.465Z,41.20
2018-08-25T13:03:49.088Z,39.90
2018-08-25T13:06:21.572Z,40.30
2018-08-25T13:08:54.507Z,40.70
2018-08-25T13:11:27.179Z,39.30
2018-08-25T13:13:59.620Z,39.90
2018-08-25T13:16:31.916Z,40.50
2018-08-25T13:19:04.397Z,39.50
2018-08-25T13:21:36.629Z,40.20
2018-08-25T13:24:09.947Z,40.00
2018-08-25T13:26:42.544Z,39.60
2018-08-25T13:29:14.898Z,40.80
2018-08-25T13:31:47.642Z,39.60
2018-08-25T13:34:20.617Z,40.60
2018-08-25T13:36:53.060Z,40.30
2018-08-25T13:39:25.567Z,40.80
2018-08-25T13:41:58.168Z,41.30
2018-08-25T13:44:30.620Z,41.10
2018-08-25T13:47:03.769Z,41.30
2018-08-25T13:49:36.872Z,41.80
2018-08-25T13:52:09.537Z,42.80
2018-08-25T13:54:41.433Z,44.60
2018-08-25T13:57:14.281Z,45.00
2018-08-25T13:59:46.884Z,45.30
2018-08-25T14:02:19.025Z,45.20
2018-08-25T14:04:52.566Z,45.40
2018-08-25T14:07:24.960Z,43.60
2018-08-25T14:09:57.460Z,43.70
2018-08-25T14:12:29.154Z,44.10
2018-08-25T14:15:01.482Z,46.10
2018-08-25T14:17:33.548Z,47.00
2018-08-25T14:20:06.070Z,47.50
2018-08-25T14:22:38.955Z,46.40
2018-08-25T14:25:11.234Z,45.90
2018-08-25T14:27:44.224Z,46.40
2018-08-25T14:30:16.098Z,48.30
2018-08-25T14:32:48.607Z,48.90
2018-08-25T14:35:21.286Z,49.20
2018-08-25T14:37:54.052Z,49.20
2018-08-25T14:40:26.650Z,48.80
2018-08-25T14:43:01.198Z,48.40
2018-08-25T14:45:33.135Z,49.00
2018-08-25T14:48:06.260Z,47.20
2018-08-25T14:50:38.966Z,48.20
2018-08-25T14:53:11.745Z,46.20
2018-08-25T14:55:44.701Z,46.10
2018-08-25T14:58:16.784Z,43.50
2018-08-25T15:00:49.456Z,43.60
2018-08-25T15:03:21.285Z,43.60
2018-08-25T15:05:53.469Z,43.10
2018-08-25T15:08:26.597Z,43.40
2018-08-25T15:10:58.511Z,45.10
2018-08-25T15:13:30.764Z,43.80
2018-08-25T15:16:03.521Z,44.70
2018-08-25T15:18:35.427Z,43.50
2018-08-25T15:21:07.483Z,44.40
2018-08-25T15:23:39.317Z,46.10
2018-08-25T15:26:12.176Z,47.60
2018-08-25T15:28:45.615Z,47.70
2018-08-25T15:31:17.966Z,45.20
2018-08-25T15:33:50.410Z,45.50
2018-08-25T15:36:22.536Z,43.30
2018-08-25T15:38:54.181Z,43.90
2018-08-25T15:41:27.191Z,45.40
2018-08-25T15:43:59.796Z,45.60
2018-08-25T15:46:31.842Z,45.90
2018-08-25T15:49:04.421Z,46.10
2018-08-25T15:51:36.942Z,44.90
2018-08-25T15:54:09.702Z,44.30
2018-08-25T15:56:41.407Z,45.20
2018-08-25T15:59:13.727Z,45.50
2018-08-25T16:01:46.312Z,46.50
2018-08-25T16:04:18.650Z,46.60
2018-08-25T16:06:51.046Z,46.90
2018-08-25T16:09:23.051Z,47.60
2018-08-25T16:11:55.465Z,47.80
2018-08-25T16:14:28.349Z,49.10
2018-08-25T16:17:01.088Z,50.40
2018-08-25T16:19:33.200Z,50.90
2018-08-25T16:22:05.668Z,49.90
2018-08-25T16:24:38.453Z,49.70
2018-08-25T16:27:10.719Z,52.10
2018-08-25T16:29:43.515Z,53.00
2018-08-25T16:32:15.887Z,52.80
2018-08-25T16:34:48.300Z,53.90
2018-08-25T16:37:20.899Z,54.20
2018-08-25T16:39:53.276Z,54.00
2018-08-25T16:42:25.738Z,54.70
2018-08-25T16:44:58.306Z,54.90
2018-08-25T16:47:30.740Z,55.90
2018-08-25T16:50:02.590Z,56.20
2018-08-25T16:52:35.434Z,56.50
2018-08-25T16:55:07.767Z,56.50
2018-08-25T16:57:40.565Z,57.10
2018-08-25T17:00:12.957Z,58.00
2018-08-25T17:02:45.660Z,58.90
2018-08-25T17:05:19.200Z,59.10
2018-08-25T17:07:51.116Z,58.60
2018-08-25T17:10:23.769Z,59.40
2018-08-25T17:12:56.250Z,59.90
2018-08-25T17:15:29.735Z,59.80
2018-08-25T17:18:01.973Z,60.60
2018-08-25T17:20:34.457Z,61.40
2018-08-25T17:23:06.834Z,62.10
2018-08-25T17:25:39.175Z,62.40
2018-08-25T17:28:11.433Z,62.90
2018-08-25T17:30:43.900Z,62.80
2018-08-25T17:33:16.487Z,62.50
2018-08-25T17:35:48.515Z,62.40
2018-08-25T17:38:20.581Z,62.60
2018-08-25T17:40:52.827Z,62.90
2018-08-25T17:43:24.751Z,63.60
2018-08-25T17:45:56.975Z,63.90
2018-08-25T17:48:29.392Z,64.30
2018-08-25T17:51:02.130Z,63.60
2018-08-25T17:53:34.292Z,63.90
2018-08-25T17:56:07.382Z,64.40
2018-08-25T17:58:39.531Z,64.80
2018-08-25T18:01:12.153Z,65.30
2018-08-25T18:03:44.462Z,65.80
2018-08-25T18:06:16.891Z,66.20
2018-08-25T18:08:49.315Z,66.80
2018-08-25T18:11:22.789Z,68.10
2018-08-25T18:13:54.526Z,67.70
2018-08-25T18:16:27.535Z,68.10
2018-08-25T18:18:59.550Z,68.40
2018-08-25T18:21:32.307Z,68.70
2018-08-25T18:24:04.418Z,69.70
2018-08-25T18:26:36.525Z,69.20
2018-08-25T18:29:08.843Z,69.50
2018-08-25T18:31:41.701Z,70.10
2018-08-25T18:34:15.074Z,70.50
2018-08-25T18:36:47.530Z,70.40
2018-08-25T18:39:20.164Z,70.70
2018-08-25T18:41:52.608Z,70.80
2018-08-25T18:44:24.699Z,71.00
2018-08-25T18:46:57.122Z,71.20
2018-08-25T18:49:28.990Z,71.20
2018-08-25T18:52:01.370Z,71.30
2018-08-25T18:54:34.410Z,71.60
2018-08-25T18:57:06.117Z,71.60
2018-08-25T18:59:38.214Z,72.20
2018-08-25T19:02:10.958Z,72.40
2018-08-25T19:04:42.863Z,72.50
2018-08-25T19:07:15.242Z,73.60
2018-08-25T19:09:48.259Z,72.80
2018-08-25T19:12:20.629Z,72.90
2018-08-25T19:14:53.609Z,73.00
2018-08-25T19:17:26.290Z,72.70
2018-08-25T19:19:59.031Z,72.60
2018-08-25T19:22:31.727Z,72.80
2018-08-25T19:25:04.020Z,73.10
2018-08-25T19:27:36.631Z,73.40
2018-08-25T19:30:09.574Z,73.50
2018-08-25T19:32:41.956Z,73.50
2018-08-25T19:35:15.099Z,73.60
2018-08-25T19:37:47.986Z,73.80
2018-08-25T19:40:20.058Z,74.20
2018-08-25T19:42:52.245Z,74.20
2018-08-25T19:45:24.727Z,74.60
2018-08-25T19:47:57.082Z,74.60
2018-08-25T19:50:29.238Z,74.90
2018-08-25T19:53:01.859Z,75.60
2018-08-25T19:55:33.634Z,75.50
2018-08-25T19:58:06.055Z,75.60
2018-08-25T20:00:38.539Z,75.40
2018-08-25T20:03:10.874Z,75.30
2018-08-25T20:05:44.121Z,75.50
2018-08-25T20:08:16.363Z,76.10
2018-08-25T20:10:48.909Z,76.60
2018-08-25T20:13:20.879Z,76.50
2018-08-25T20:15:52.983Z,77.10
2018-08-25T20:18:25.815Z,77.00
2018-08-25T20:20:58.501Z,77.00
2018-08-25T20:23:31.075Z,77.10
2018-08-25T20:26:04.009Z,77.60
2018-08-25T20:28:36.291Z,78.10
2018-08-25T20:31:09.047Z,78.20
2018-08-25T20:33:41.436Z,78.50
2018-08-25T20:36:13.551Z,78.80
2018-08-25T20:38:45.671Z,79.20
2018-08-25T20:41:18.563Z,79.30
2018-08-25T20:43:51.789Z,79.30
2018-08-25T20:46:24.204Z,79.40
2018-08-25T20:48:56.748Z,79.20
2018-08-25T20:51:29.469Z,79.50
2018-08-25T20:54:04.156Z,79.30
2018-08-25T20:56:36.809Z,79.20
2018-08-25T20:59:09.101Z,80.20
2018-08-25T21:01:41.252Z,79.70
2018-08-25T21:04:13.619Z,79.80
2018-08-25T21:06:46.237Z,79.50
2018-08-25T21:09:18.780Z,80.40
2018-08-25T21:11:51.286Z,79.60
2018-08-25T21:14:24.024Z,80.10
2018-08-25T21:16:56.793Z,79.80
2018-08-25T21:19:29.400Z,79.80
2018-08-25T21:22:01.743Z,80.60
2018-08-25T21:24:34.419Z,80.90
2018-08-25T21:27:06.529Z,80.80
2018-08-25T21:29:38.969Z,80.90
2018-08-25T21:32:11.734Z,80.70
2018-08-25T21:34:43.839Z,80.40
2018-08-25T21:37:16.885Z,80.30
2018-08-25T21:39:49.175Z,80.40
2018-08-25T21:42:22.018Z,80.30
2018-08-25T21:44:54.549Z,79.90
2018-08-25T21:47:26.619Z,80.00
2018-08-25T21:49:59.114Z,80.30
2018-08-25T21:52:31.819Z,80.00
2018-08-25T21:55:04.181Z,79.80
2018-08-25T21:57:37.046Z,80.10
2018-08-25T22:00:10.096Z,80.10
2018-08-25T22:02:42.230Z,80.20
2018-08-25T22:05:14.427Z,80.70
2018-08-25T22:07:46.647Z,81.10
2018-08-25T22:10:18.727Z,81.20
2018-08-25T22:12:51.450Z,81.30
2018-08-25T22:15:23.765Z,81.30
2018-08-25T22:17:56.178Z,81.50
2018-08-25T22:20:28.557Z,81.70
2018-08-25T22:23:01.175Z,82.10
2018-08-25T22:25:33.445Z,82.30
2018-08-25T22:28:05.587Z,82.00
2018-08-25T22:30:37.882Z,82.10
2018-08-25T22:33:10.074Z,81.90
2018-08-25T22:35:43.130Z,81.70
2018-08-25T22:38:15.037Z,81.60
2018-08-25T22:40:48.535Z,81.80
2018-08-25T22:43:20.583Z,81.80
2018-08-25T22:45:52.884Z,81.80
2018-08-25T22:48:24.995Z,81.70
2018-08-25T22:50:57.514Z,81.90
2018-08-25T22:53:29.470Z,82.20
2018-08-25T22:56:01.939Z,82.10
2018-08-25T22:58:34.159Z,81.60
2018-08-25T23:01:07.487Z,81.50
2018-08-25T23:03:39.997Z,81.70
2018-08-25T23:06:12.884Z,81.90
2018-08-25T23:08:44.803Z,82.00
2018-08-25T23:11:17.657Z,81.90
2018-08-25T23:13:50.263Z,82.00
2018-08-25T23:16:22.250Z,83.00
2018-08-25T23:18:54.510Z,82.60
2018-08-25T23:21:26.777Z,82.80
2018-08-25T23:23:58.798Z,82.70
2018-08-25T23:26:30.994Z,82.80
2018-08-25T23:29:02.992Z,82.80
2018-08-25T23:31:35.329Z,83.70
2018-08-25T23:34:07.313Z,83.20
2018-08-25T23:36:39.247Z,82.90
2018-08-25T23:39:12.072Z,82.70
2018-08-25T23:41:44.151Z,82.70
2018-08-25T23:44:16.090Z,82.60
2018-08-25T23:46:48.522Z,83.20
2018-08-25T23:49:20.706Z,83.70
2018-08-25T23:51:52.964Z,84.00
2018-08-25T23:54:25.199Z,84.00
2018-08-25T23:56:56.969Z,84.10
2018-08-25T23:59:28.819Z,84.10
